sensor_id;sensor_type;location;lat;lon;timestamp;P1;durP1;ratioP1;P2;durP2;ratioP2
21901;SDS011;11115;46.038;14.612;2024-03-23T00:56:53;9.67;;;5.90;;
21901;SDS011;11115;46.038;14.612;2024-03-23T00:59:19;7.87;;;5.17;;
21901;SDS011;11115;46.038;14.612;2024-03-23T01:01:55;10.37;;;5.50;;
21901;SDS011;11115;46.038;14.612;2024-03-23T01:04:27;11.47;;;5.07;;
21901;SDS011;11115;46.038;14.612;2024-03-23T01:06:54;8.70;;;5.23;;
21901;SDS011;11115;46.038;14.612;2024-03-23T01:09:21;8.33;;;5.50;;
21901;SDS011;11115;46.038;14.612;2024-03-23T01:11:51;7.20;;;4.53;;
21901;SDS011;11115;46.038;14.612;2024-03-23T01:14:19;7.87;;;4.30;;
21901;SDS011;11115;46.038;14.612;2024-03-23T01:16:57;8.77;;;3.70;;
21901;SDS011;11115;46.038;14.612;2024-03-23T01:19:25;5.90;;;3.53;;
21901;SDS011;11115;46.038;14.612;2024-03-23T01:21:57;5.35;;;2.88;;
21901;SDS011;11115;46.038;14.612;2024-03-23T01:24:29;6.78;;;2.72;;
21901;SDS011;11115;46.038;14.612;2024-03-23T01:27:00;9.43;;;4.43;;
21901;SDS011;11115;46.038;14.612;2024-03-23T01:29:33;5.23;;;3.37;;
21901;SDS011;11115;46.038;14.612;2024-03-23T01:32:01;6.60;;;4.10;;
21901;SDS011;11115;46.038;14.612;2024-03-23T01:34:28;5.53;;;4.00;;
21901;SDS011;11115;46.038;14.612;2024-03-23T01:37:09;7.33;;;4.13;;
21901;SDS011;11115;46.038;14.612;2024-03-23T01:39:52;4.97;;;3.30;;
21901;SDS011;11115;46.038;14.612;2024-03-23T01:42:18;12.97;;;4.80;;
21901;SDS011;11115;46.038;14.612;2024-03-23T01:44:50;8.47;;;4.03;;
21901;SDS011;11115;46.038;14.612;2024-03-23T01:47:17;9.70;;;4.70;;
21901;SDS011;11115;46.038;14.612;2024-03-23T01:49:49;8.57;;;5.40;;
21901;SDS011;11115;46.038;14.612;2024-03-23T01:52:16;9.60;;;5.07;;
21901;SDS011;11115;46.038;14.612;2024-03-23T01:57:15;7.60;;;4.33;;
21901;SDS011;11115;46.038;14.612;2024-03-23T01:59:48;6.43;;;4.63;;
21901;SDS011;11115;46.038;14.612;2024-03-23T02:02:23;13.37;;;5.23;;
21901;SDS011;11115;46.038;14.612;2024-03-23T02:04:56;7.43;;;4.80;;
21901;SDS011;11115;46.038;14.612;2024-03-23T02:07:24;13.57;;;5.40;;
21901;SDS011;11115;46.038;14.612;2024-03-23T02:09:56;6.78;;;4.53;;
21901;SDS011;11115;46.038;14.612;2024-03-23T02:12:25;9.37;;;5.83;;
21901;SDS011;11115;46.038;14.612;2024-03-23T02:14:55;9.67;;;4.43;;
21901;SDS011;11115;46.038;14.612;2024-03-23T02:17:30;11.27;;;5.07;;
21901;SDS011;11115;46.038;14.612;2024-03-23T02:19:58;12.67;;;6.50;;
21901;SDS011;11115;46.038;14.612;2024-03-23T02:22:36;6.23;;;4.37;;
21901;SDS011;11115;46.038;14.612;2024-03-23T02:25:13;7.07;;;4.33;;
21901;SDS011;11115;46.038;14.612;2024-03-23T02:27:39;11.13;;;5.03;;
21901;SDS011;11115;46.038;14.612;2024-03-23T02:30:10;8.80;;;5.93;;
21901;SDS011;11115;46.038;14.612;2024-03-23T02:32:38;7.97;;;5.47;;
21901;SDS011;11115;46.038;14.612;2024-03-23T02:35:09;8.90;;;5.60;;
21901;SDS011;11115;46.038;14.612;2024-03-23T02:37:36;9.20;;;5.17;;
21901;SDS011;11115;46.038;14.612;2024-03-23T02:40:08;12.00;;;4.13;;
21901;SDS011;11115;46.038;14.612;2024-03-23T02:42:37;7.80;;;2.83;;
21901;SDS011;11115;46.038;14.612;2024-03-23T02:45:10;6.80;;;3.03;;
21901;SDS011;11115;46.038;14.612;2024-03-23T02:47:42;5.55;;;3.85;;
21901;SDS011;11115;46.038;14.612;2024-03-23T02:52:42;6.27;;;4.10;;
21901;SDS011;11115;46.038;14.612;2024-03-23T02:55:17;6.97;;;3.60;;
21901;SDS011;11115;46.038;14.612;2024-03-23T02:57:50;8.17;;;3.60;;
21901;SDS011;11115;46.038;14.612;2024-03-23T03:00:23;8.37;;;4.13;;
21901;SDS011;11115;46.038;14.612;2024-03-23T03:02:50;9.27;;;5.60;;
21901;SDS011;11115;46.038;14.612;2024-03-23T03:05:18;11.83;;;5.17;;
21901;SDS011;11115;46.038;14.612;2024-03-23T03:07:45;8.50;;;5.13;;
21901;SDS011;11115;46.038;14.612;2024-03-23T03:10:20;7.83;;;4.33;;
21901;SDS011;11115;46.038;14.612;2024-03-23T03:12:49;6.10;;;4.17;;
21901;SDS011;11115;46.038;14.612;2024-03-23T03:15:18;5.80;;;4.60;;
21901;SDS011;11115;46.038;14.612;2024-03-23T03:17:48;10.57;;;5.23;;
21901;SDS011;11115;46.038;14.612;2024-03-23T03:20:20;8.77;;;4.60;;
21901;SDS011;11115;46.038;14.612;2024-03-23T03:22:51;5.83;;;4.33;;
21901;SDS011;11115;46.038;14.612;2024-03-23T03:25:25;5.30;;;3.63;;
21901;SDS011;11115;46.038;14.612;2024-03-23T03:27:52;7.30;;;3.63;;
21901;SDS011;11115;46.038;14.612;2024-03-23T03:30:24;5.47;;;3.33;;
21901;SDS011;11115;46.038;14.612;2024-03-23T03:32:56;5.80;;;3.50;;
21901;SDS011;11115;46.038;14.612;2024-03-23T03:35:24;10.83;;;4.20;;
21901;SDS011;11115;46.038;14.612;2024-03-23T03:37:50;5.43;;;4.33;;
21901;SDS011;11115;46.038;14.612;2024-03-23T03:40:20;6.53;;;4.30;;
21901;SDS011;11115;46.038;14.612;2024-03-23T03:42:50;9.20;;;4.30;;
21901;SDS011;11115;46.038;14.612;2024-03-23T03:45:17;6.20;;;3.37;;
21901;SDS011;11115;46.038;14.612;2024-03-23T03:47:45;7.77;;;3.70;;
21901;SDS011;11115;46.038;14.612;2024-03-23T03:50:14;13.93;;;4.27;;
21901;SDS011;11115;46.038;14.612;2024-03-23T03:52:44;7.87;;;3.77;;
21901;SDS011;11115;46.038;14.612;2024-03-23T03:55:13;6.47;;;4.50;;
21901;SDS011;11115;46.038;14.612;2024-03-23T03:57:40;8.43;;;4.13;;
21901;SDS011;11115;46.038;14.612;2024-03-23T04:00:10;5.30;;;3.80;;
21901;SDS011;11115;46.038;14.612;2024-03-23T04:02:41;9.60;;;4.55;;
21901;SDS011;11115;46.038;14.612;2024-03-23T04:05:08;13.80;;;5.00;;
21901;SDS011;11115;46.038;14.612;2024-03-23T04:07:40;12.23;;;4.30;;
21901;SDS011;11115;46.038;14.612;2024-03-23T04:10:08;10.03;;;5.30;;
21901;SDS011;11115;46.038;14.612;2024-03-23T04:12:42;14.97;;;5.87;;
21901;SDS011;11115;46.038;14.612;2024-03-23T04:15:10;8.50;;;4.93;;
21901;SDS011;11115;46.038;14.612;2024-03-23T04:17:47;9.27;;;5.43;;
21901;SDS011;11115;46.038;14.612;2024-03-23T04:20:21;6.23;;;4.30;;
21901;SDS011;11115;46.038;14.612;2024-03-23T04:22:52;6.77;;;4.43;;
21901;SDS011;11115;46.038;14.612;2024-03-23T04:25:19;12.07;;;5.07;;
21901;SDS011;11115;46.038;14.612;2024-03-23T04:30:18;11.23;;;5.00;;
21901;SDS011;11115;46.038;14.612;2024-03-23T04:32:56;7.03;;;5.37;;
21901;SDS011;11115;46.038;14.612;2024-03-23T04:35:27;8.90;;;3.93;;
21901;SDS011;11115;46.038;14.612;2024-03-23T04:38:00;6.13;;;4.20;;
21901;SDS011;11115;46.038;14.612;2024-03-23T04:40:34;9.80;;;5.17;;
21901;SDS011;11115;46.038;14.612;2024-03-23T04:43:14;6.40;;;4.20;;
21901;SDS011;11115;46.038;14.612;2024-03-23T04:45:53;7.17;;;4.97;;
21901;SDS011;11115;46.038;14.612;2024-03-23T04:48:38;7.47;;;4.70;;
21901;SDS011;11115;46.038;14.612;2024-03-23T04:51:23;9.53;;;5.07;;
21901;SDS011;11115;46.038;14.612;2024-03-23T04:53:50;8.87;;;4.90;;
21901;SDS011;11115;46.038;14.612;2024-03-23T04:56:20;10.87;;;5.40;;
21901;SDS011;11115;46.038;14.612;2024-03-23T04:59:04;7.50;;;4.70;;
21901;SDS011;11115;46.038;14.612;2024-03-23T05:01:37;13.98;;;5.60;;
21901;SDS011;11115;46.038;14.612;2024-03-23T05:04:08;8.57;;;4.40;;
21901;SDS011;11115;46.038;14.612;2024-03-23T05:06:45;14.33;;;4.50;;
21901;SDS011;11115;46.038;14.612;2024-03-23T05:09:13;6.70;;;4.83;;
21901;SDS011;11115;46.038;14.612;2024-03-23T05:11:45;6.50;;;4.80;;
21901;SDS011;11115;46.038;14.612;2024-03-23T05:14:14;7.63;;;4.13;;
21901;SDS011;11115;46.038;14.612;2024-03-23T05:16:46;4.57;;;3.50;;
21901;SDS011;11115;46.038;14.612;2024-03-23T05:19:16;5.77;;;4.10;;
21901;SDS011;11115;46.038;14.612;2024-03-23T05:21:43;9.00;;;5.03;;
21901;SDS011;11115;46.038;14.612;2024-03-23T05:24:13;8.70;;;5.60;;
21901;SDS011;11115;46.038;14.612;2024-03-23T05:26:39;9.33;;;5.17;;
21901;SDS011;11115;46.038;14.612;2024-03-23T05:29:09;13.30;;;5.10;;
21901;SDS011;11115;46.038;14.612;2024-03-23T05:31:40;8.13;;;5.43;;
21901;SDS011;11115;46.038;14.612;2024-03-23T05:34:11;8.80;;;5.40;;
21901;SDS011;11115;46.038;14.612;2024-03-23T05:36:39;7.00;;;4.20;;
21901;SDS011;11115;46.038;14.612;2024-03-23T05:39:06;14.37;;;5.17;;
21901;SDS011;11115;46.038;14.612;2024-03-23T05:41:35;9.47;;;6.33;;
21901;SDS011;11115;46.038;14.612;2024-03-23T05:44:08;21.40;;;5.47;;
21901;SDS011;11115;46.038;14.612;2024-03-23T05:46:37;6.82;;;4.80;;
21901;SDS011;11115;46.038;14.612;2024-03-23T05:49:15;6.27;;;4.63;;
21901;SDS011;11115;46.038;14.612;2024-03-23T05:51:43;4.60;;;3.90;;
21901;SDS011;11115;46.038;14.612;2024-03-23T05:54:10;12.27;;;6.70;;
21901;SDS011;11115;46.038;14.612;2024-03-23T05:56:39;13.40;;;5.27;;
21901;SDS011;11115;46.038;14.612;2024-03-23T05:59:11;7.05;;;4.68;;
21901;SDS011;11115;46.038;14.612;2024-03-23T06:01:50;8.77;;;5.80;;
21901;SDS011;11115;46.038;14.612;2024-03-23T06:04:20;7.73;;;4.50;;
21901;SDS011;11115;46.038;14.612;2024-03-23T06:07:00;8.10;;;5.40;;
21901;SDS011;11115;46.038;14.612;2024-03-23T06:09:26;20.60;;;9.40;;
21901;SDS011;11115;46.038;14.612;2024-03-23T06:11:57;22.53;;;9.53;;
21901;SDS011;11115;46.038;14.612;2024-03-23T06:14:25;20.13;;;9.87;;
21901;SDS011;11115;46.038;14.612;2024-03-23T06:17:00;12.17;;;5.77;;
21901;SDS011;11115;46.038;14.612;2024-03-23T06:19:27;7.00;;;4.87;;
21901;SDS011;11115;46.038;14.612;2024-03-23T06:22:04;6.57;;;4.53;;
21901;SDS011;11115;46.038;14.612;2024-03-23T06:24:41;8.40;;;5.22;;
21901;SDS011;11115;46.038;14.612;2024-03-23T06:27:17;9.32;;;5.88;;
21901;SDS011;11115;46.038;14.612;2024-03-23T06:29:44;11.03;;;5.53;;
21901;SDS011;11115;46.038;14.612;2024-03-23T06:32:16;6.90;;;5.70;;
21901;SDS011;11115;46.038;14.612;2024-03-23T06:34:46;11.50;;;8.00;;
21901;SDS011;11115;46.038;14.612;2024-03-23T06:37:15;25.93;;;16.87;;
21901;SDS011;11115;46.038;14.612;2024-03-23T06:39:50;11.37;;;8.17;;
21901;SDS011;11115;46.038;14.612;2024-03-23T06:42:20;8.53;;;5.97;;
21901;SDS011;11115;46.038;14.612;2024-03-23T06:44:50;5.60;;;4.95;;
21901;SDS011;11115;46.038;14.612;2024-03-23T06:47:19;9.30;;;5.70;;
21901;SDS011;11115;46.038;14.612;2024-03-23T06:49:48;9.73;;;5.87;;
21901;SDS011;11115;46.038;14.612;2024-03-23T06:52:16;10.23;;;5.77;;
21901;SDS011;11115;46.038;14.612;2024-03-23T06:54:47;12.93;;;6.90;;
21901;SDS011;11115;46.038;14.612;2024-03-23T06:57:16;7.87;;;5.87;;
21901;SDS011;11115;46.038;14.612;2024-03-23T06:59:52;9.13;;;6.30;;
21901;SDS011;11115;46.038;14.612;2024-03-23T07:02:19;9.03;;;7.17;;
21901;SDS011;11115;46.038;14.612;2024-03-23T07:04:51;9.30;;;6.80;;
21901;SDS011;11115;46.038;14.612;2024-03-23T07:07:19;14.87;;;7.37;;
21901;SDS011;11115;46.038;14.612;2024-03-23T07:09:50;11.07;;;7.28;;
21901;SDS011;11115;46.038;14.612;2024-03-23T07:12:17;12.20;;;7.50;;
21901;SDS011;11115;46.038;14.612;2024-03-23T07:14:59;12.30;;;7.27;;
21901;SDS011;11115;46.038;14.612;2024-03-23T07:17:26;7.50;;;6.23;;
21901;SDS011;11115;46.038;14.612;2024-03-23T07:19:55;10.00;;;7.13;;
21901;SDS011;11115;46.038;14.612;2024-03-23T07:22:22;12.67;;;8.17;;
21901;SDS011;11115;46.038;14.612;2024-03-23T07:24:54;9.33;;;6.60;;
21901;SDS011;11115;46.038;14.612;2024-03-23T07:27:22;8.90;;;6.83;;
21901;SDS011;11115;46.038;14.612;2024-03-23T07:30:01;10.77;;;7.27;;
21901;SDS011;11115;46.038;14.612;2024-03-23T07:32:31;10.67;;;6.03;;
21901;SDS011;11115;46.038;14.612;2024-03-23T07:35:02;6.70;;;4.78;;
21901;SDS011;11115;46.038;14.612;2024-03-23T07:37:33;6.33;;;4.40;;
21901;SDS011;11115;46.038;14.612;2024-03-23T07:40:09;9.10;;;4.00;;
21901;SDS011;11115;46.038;14.612;2024-03-23T07:42:38;8.17;;;4.03;;
21901;SDS011;11115;46.038;14.612;2024-03-23T07:45:08;5.47;;;4.00;;
21901;SDS011;11115;46.038;14.612;2024-03-23T07:47:36;6.87;;;4.23;;
21901;SDS011;11115;46.038;14.612;2024-03-23T07:50:07;6.30;;;3.72;;
21901;SDS011;11115;46.038;14.612;2024-03-23T07:52:40;11.93;;;4.10;;
21901;SDS011;11115;46.038;14.612;2024-03-23T07:55:10;5.57;;;4.23;;
21901;SDS011;11115;46.038;14.612;2024-03-23T07:57:40;9.57;;;4.23;;
21901;SDS011;11115;46.038;14.612;2024-03-23T08:00:09;5.73;;;3.70;;
21901;SDS011;11115;46.038;14.612;2024-03-23T08:02:39;6.23;;;3.47;;
21901;SDS011;11115;46.038;14.612;2024-03-23T08:05:13;3.73;;;2.80;;
21901;SDS011;11115;46.038;14.612;2024-03-23T08:07:43;3.50;;;2.37;;
21901;SDS011;11115;46.038;14.612;2024-03-23T08:10:11;5.00;;;2.63;;
21901;SDS011;11115;46.038;14.612;2024-03-23T08:12:45;4.97;;;3.07;;
21901;SDS011;11115;46.038;14.612;2024-03-23T08:15:15;3.05;;;2.22;;
21901;SDS011;11115;46.038;14.612;2024-03-23T08:17:46;6.17;;;2.63;;
21901;SDS011;11115;46.038;14.612;2024-03-23T08:20:12;4.05;;;2.22;;
21901;SDS011;11115;46.038;14.612;2024-03-23T08:22:41;4.10;;;2.08;;
21901;SDS011;11115;46.038;14.612;2024-03-23T08:25:11;3.07;;;1.87;;
21901;SDS011;11115;46.038;14.612;2024-03-23T08:27:44;2.05;;;1.85;;
21901;SDS011;11115;46.038;14.612;2024-03-23T08:30:12;2.38;;;2.00;;
21901;SDS011;11115;46.038;14.612;2024-03-23T08:32:49;7.18;;;2.42;;
21901;SDS011;11115;46.038;14.612;2024-03-23T08:35:16;4.10;;;1.83;;
21901;SDS011;11115;46.038;14.612;2024-03-23T08:37:44;3.65;;;1.23;;
21901;SDS011;11115;46.038;14.612;2024-03-23T08:40:14;5.10;;;1.25;;
21901;SDS011;11115;46.038;14.612;2024-03-23T08:42:45;2.58;;;1.77;;
21901;SDS011;11115;46.038;14.612;2024-03-23T08:45:11;3.13;;;1.30;;
21901;SDS011;11115;46.038;14.612;2024-03-23T08:47:40;1.55;;;1.02;;
21901;SDS011;11115;46.038;14.612;2024-03-23T08:50:07;1.30;;;1.00;;
21901;SDS011;11115;46.038;14.612;2024-03-23T08:52:38;3.65;;;1.35;;
21901;SDS011;11115;46.038;14.612;2024-03-23T08:55:05;3.47;;;0.98;;
21901;SDS011;11115;46.038;14.612;2024-03-23T08:57:37;1.98;;;0.88;;
21901;SDS011;11115;46.038;14.612;2024-03-23T09:00:05;2.47;;;1.08;;
21901;SDS011;11115;46.038;14.612;2024-03-23T09:02:38;1.20;;;0.90;;
21901;SDS011;11115;46.038;14.612;2024-03-23T09:05:07;2.05;;;1.38;;
21901;SDS011;11115;46.038;14.612;2024-03-23T09:07:38;2.03;;;1.60;;
21901;SDS011;11115;46.038;14.612;2024-03-23T09:10:06;2.85;;;1.25;;
21901;SDS011;11115;46.038;14.612;2024-03-23T09:12:44;1.15;;;0.77;;
21901;SDS011;11115;46.038;14.612;2024-03-23T09:15:16;4.32;;;1.20;;
21901;SDS011;11115;46.038;14.612;2024-03-23T09:17:45;3.38;;;1.60;;
21901;SDS011;11115;46.038;14.612;2024-03-23T09:20:13;1.48;;;1.10;;
21901;SDS011;11115;46.038;14.612;2024-03-23T09:22:40;3.17;;;1.17;;
21901;SDS011;11115;46.038;14.612;2024-03-23T09:25:17;3.13;;;1.17;;
21901;SDS011;11115;46.038;14.612;2024-03-23T09:27:48;5.93;;;1.90;;
21901;SDS011;11115;46.038;14.612;2024-03-23T09:30:19;0.95;;;0.95;;
21901;SDS011;11115;46.038;14.612;2024-03-23T09:32:45;1.42;;;1.20;;
21901;SDS011;11115;46.038;14.612;2024-03-23T09:35:17;3.47;;;1.00;;
21901;SDS011;11115;46.038;14.612;2024-03-23T09:37:48;1.58;;;1.10;;
21901;SDS011;11115;46.038;14.612;2024-03-23T09:40:16;1.70;;;1.13;;
21901;SDS011;11115;46.038;14.612;2024-03-23T09:42:47;7.25;;;1.30;;
21901;SDS011;11115;46.038;14.612;2024-03-23T09:45:17;3.63;;;1.23;;
21901;SDS011;11115;46.038;14.612;2024-03-23T09:50:18;2.60;;;1.08;;
21901;SDS011;11115;46.038;14.612;2024-03-23T09:52:47;6.47;;;1.40;;
21901;SDS011;11115;46.038;14.612;2024-03-23T09:55:17;1.93;;;1.40;;
21901;SDS011;11115;46.038;14.612;2024-03-23T09:57:45;16.50;;;8.57;;
21901;SDS011;11115;46.038;14.612;2024-03-23T10:00:17;3.70;;;1.35;;
21901;SDS011;11115;46.038;14.612;2024-03-23T10:02:46;2.90;;;1.58;;
21901;SDS011;11115;46.038;14.612;2024-03-23T10:05:22;2.30;;;1.15;;
21901;SDS011;11115;46.038;14.612;2024-03-23T10:07:50;4.07;;;1.20;;
21901;SDS011;11115;46.038;14.612;2024-03-23T10:10:18;2.22;;;0.95;;
21901;SDS011;11115;46.038;14.612;2024-03-23T10:12:51;8.60;;;1.10;;
21901;SDS011;11115;46.038;14.612;2024-03-23T10:15:19;7.35;;;1.05;;
21901;SDS011;11115;46.038;14.612;2024-03-23T10:17:54;2.00;;;1.38;;
21901;SDS011;11115;46.038;14.612;2024-03-23T10:20:22;1.95;;;1.17;;
21901;SDS011;11115;46.038;14.612;2024-03-23T10:22:50;2.00;;;1.30;;
21901;SDS011;11115;46.038;14.612;2024-03-23T10:25:22;4.20;;;1.30;;
21901;SDS011;11115;46.038;14.612;2024-03-23T10:27:58;1.55;;;0.77;;
21901;SDS011;11115;46.038;14.612;2024-03-23T10:30:25;2.40;;;1.20;;
21901;SDS011;11115;46.038;14.612;2024-03-23T10:33:08;3.00;;;1.15;;
21901;SDS011;11115;46.038;14.612;2024-03-23T10:35:37;3.03;;;0.80;;
21901;SDS011;11115;46.038;14.612;2024-03-23T10:38:20;3.05;;;1.50;;
21901;SDS011;11115;46.038;14.612;2024-03-23T10:40:49;2.90;;;1.42;;
21901;SDS011;11115;46.038;14.612;2024-03-23T10:43:18;2.45;;;1.35;;
21901;SDS011;11115;46.038;14.612;2024-03-23T10:45:50;1.15;;;0.98;;
21901;SDS011;11115;46.038;14.612;2024-03-23T10:48:21;2.83;;;1.50;;
21901;SDS011;11115;46.038;14.612;2024-03-23T10:50:53;3.10;;;1.38;;
21901;SDS011;11115;46.038;14.612;2024-03-23T10:53:25;1.73;;;1.17;;
21901;SDS011;11115;46.038;14.612;2024-03-23T10:55:55;1.40;;;1.30;;
21901;SDS011;11115;46.038;14.612;2024-03-23T10:58:46;2.20;;;1.15;;
21901;SDS011;11115;46.038;14.612;2024-03-23T11:01:16;2.42;;;1.20;;
21901;SDS011;11115;46.038;14.612;2024-03-23T11:03:47;5.55;;;1.30;;
21901;SDS011;11115;46.038;14.612;2024-03-23T11:06:35;1.20;;;1.10;;
21901;SDS011;11115;46.038;14.612;2024-03-23T11:17:40;3.65;;;2.45;;
21901;SDS011;11115;46.038;14.612;2024-03-23T11:20:11;3.00;;;1.48;;
21901;SDS011;11115;46.038;14.612;2024-03-23T11:22:43;4.70;;;2.15;;
21901;SDS011;11115;46.038;14.612;2024-03-23T11:27:52;1.67;;;1.17;;
21901;SDS011;11115;46.038;14.612;2024-03-23T11:30:26;5.82;;;1.35;;
21901;SDS011;11115;46.038;14.612;2024-03-23T11:32:57;4.80;;;1.30;;
21901;SDS011;11115;46.038;14.612;2024-03-23T11:35:29;5.40;;;1.95;;
21901;SDS011;11115;46.038;14.612;2024-03-23T11:40:41;5.70;;;1.42;;
21901;SDS011;11115;46.038;14.612;2024-03-23T11:43:10;2.65;;;1.50;;
21901;SDS011;11115;46.038;14.612;2024-03-23T11:45:52;2.55;;;1.20;;
21901;SDS011;11115;46.038;14.612;2024-03-23T11:48:22;13.65;;;1.52;;
21901;SDS011;11115;46.038;14.612;2024-03-23T11:50:57;1.30;;;1.20;;
21901;SDS011;11115;46.038;14.612;2024-03-23T11:53:25;4.68;;;1.23;;
21901;SDS011;11115;46.038;14.612;2024-03-23T11:55:55;6.20;;;1.40;;
21901;SDS011;11115;46.038;14.612;2024-03-23T11:58:24;2.65;;;1.77;;
21901;SDS011;11115;46.038;14.612;2024-03-23T12:03:24;2.38;;;1.20;;
21901;SDS011;11115;46.038;14.612;2024-03-23T12:05:56;2.05;;;1.52;;
21901;SDS011;11115;46.038;14.612;2024-03-23T12:11:12;1.73;;;1.20;;
21901;SDS011;11115;46.038;14.612;2024-03-23T12:13:42;3.17;;;1.27;;
21901;SDS011;11115;46.038;14.612;2024-03-23T12:16:17;2.85;;;1.40;;
21901;SDS011;11115;46.038;14.612;2024-03-23T12:18:47;2.90;;;1.23;;
21901;SDS011;11115;46.038;14.612;2024-03-23T12:21:19;1.75;;;1.55;;
21901;SDS011;11115;46.038;14.612;2024-03-23T12:23:48;1.30;;;1.20;;
21901;SDS011;11115;46.038;14.612;2024-03-23T12:26:15;5.18;;;1.30;;
21901;SDS011;11115;46.038;14.612;2024-03-23T12:28:50;9.13;;;2.58;;
21901;SDS011;11115;46.038;14.612;2024-03-23T12:31:20;7.32;;;1.85;;
21901;SDS011;11115;46.038;14.612;2024-03-23T12:33:50;1.48;;;1.27;;
21901;SDS011;11115;46.038;14.612;2024-03-23T12:36:21;4.95;;;1.20;;
21901;SDS011;11115;46.038;14.612;2024-03-23T12:38:50;8.30;;;1.38;;
21901;SDS011;11115;46.038;14.612;2024-03-23T12:41:24;2.63;;;1.30;;
21901;SDS011;11115;46.038;14.612;2024-03-23T12:43:57;1.92;;;1.30;;
21901;SDS011;11115;46.038;14.612;2024-03-23T12:46:26;4.07;;;1.67;;
21901;SDS011;11115;46.038;14.612;2024-03-23T12:48:53;5.13;;;2.60;;
21901;SDS011;11115;46.038;14.612;2024-03-23T12:51:27;5.80;;;3.05;;
21901;SDS011;11115;46.038;14.612;2024-03-23T12:54:06;9.23;;;4.05;;
21901;SDS011;11115;46.038;14.612;2024-03-23T12:56:37;7.55;;;4.07;;
21901;SDS011;11115;46.038;14.612;2024-03-23T12:59:06;7.50;;;4.90;;
21901;SDS011;11115;46.038;14.612;2024-03-23T13:01:49;7.25;;;2.08;;
21901;SDS011;11115;46.038;14.612;2024-03-23T13:04:17;2.40;;;1.70;;
21901;SDS011;11115;46.038;14.612;2024-03-23T13:06:49;7.28;;;3.70;;
21901;SDS011;11115;46.038;14.612;2024-03-23T13:09:16;2.95;;;2.10;;
21901;SDS011;11115;46.038;14.612;2024-03-23T13:11:48;3.58;;;3.08;;
21901;SDS011;11115;46.038;14.612;2024-03-23T13:14:19;10.10;;;2.53;;
21901;SDS011;11115;46.038;14.612;2024-03-23T13:16:53;6.57;;;2.92;;
21901;SDS011;11115;46.038;14.612;2024-03-23T13:19:19;3.97;;;2.35;;
21901;SDS011;11115;46.038;14.612;2024-03-23T13:21:57;2.40;;;1.90;;
21901;SDS011;11115;46.038;14.612;2024-03-23T13:24:33;5.22;;;2.17;;
21901;SDS011;11115;46.038;14.612;2024-03-23T13:27:03;5.28;;;2.65;;
21901;SDS011;11115;46.038;14.612;2024-03-23T13:29:39;3.70;;;2.60;;
21901;SDS011;11115;46.038;14.612;2024-03-23T13:32:06;4.47;;;2.42;;
21901;SDS011;11115;46.038;14.612;2024-03-23T13:34:35;3.00;;;2.63;;
21901;SDS011;11115;46.038;14.612;2024-03-23T13:37:01;6.00;;;2.88;;
21901;SDS011;11115;46.038;14.612;2024-03-23T13:39:32;6.97;;;2.70;;
21901;SDS011;11115;46.038;14.612;2024-03-23T13:42:00;6.05;;;3.15;;
21901;SDS011;11115;46.038;14.612;2024-03-23T13:44:37;7.57;;;2.70;;
21901;SDS011;11115;46.038;14.612;2024-03-23T13:47:03;8.20;;;2.63;;
21901;SDS011;11115;46.038;14.612;2024-03-23T13:49:38;4.22;;;3.08;;
21901;SDS011;11115;46.038;14.612;2024-03-23T13:52:07;3.88;;;2.50;;
21901;SDS011;11115;46.038;14.612;2024-03-23T13:54:46;3.53;;;2.60;;
21901;SDS011;11115;46.038;14.612;2024-03-23T13:57:15;3.35;;;2.80;;
21901;SDS011;11115;46.038;14.612;2024-03-23T13:59:49;3.72;;;2.70;;
21901;SDS011;11115;46.038;14.612;2024-03-23T14:02:18;2.50;;;2.30;;
21901;SDS011;11115;46.038;14.612;2024-03-23T14:04:47;7.10;;;2.53;;
21901;SDS011;11115;46.038;14.612;2024-03-23T14:07:15;5.25;;;3.08;;
21901;SDS011;11115;46.038;14.612;2024-03-23T14:09:44;4.80;;;2.85;;
21901;SDS011;11115;46.038;14.612;2024-03-23T14:12:12;6.40;;;3.45;;
21901;SDS011;11115;46.038;14.612;2024-03-23T14:14:44;9.77;;;5.38;;
21901;SDS011;11115;46.038;14.612;2024-03-23T14:17:12;6.43;;;3.38;;
21901;SDS011;11115;46.038;14.612;2024-03-23T14:19:40;3.85;;;2.42;;
21901;SDS011;11115;46.038;14.612;2024-03-23T14:22:08;3.78;;;2.83;;
21901;SDS011;11115;46.038;14.612;2024-03-23T14:24:39;5.03;;;3.05;;
21901;SDS011;11115;46.038;14.612;2024-03-23T14:27:07;5.75;;;2.80;;
21901;SDS011;11115;46.038;14.612;2024-03-23T14:32:12;6.82;;;4.35;;
21901;SDS011;11115;46.038;14.612;2024-03-23T14:34:44;7.90;;;3.40;;
21901;SDS011;11115;46.038;14.612;2024-03-23T14:37:11;10.75;;;5.60;;
21901;SDS011;11115;46.038;14.612;2024-03-23T14:39:44;6.88;;;4.80;;
21901;SDS011;11115;46.038;14.612;2024-03-23T14:42:11;8.88;;;5.75;;
21901;SDS011;11115;46.038;14.612;2024-03-23T14:44:45;5.03;;;3.50;;
21901;SDS011;11115;46.038;14.612;2024-03-23T14:47:12;3.13;;;2.63;;
21901;SDS011;11115;46.038;14.612;2024-03-23T14:49:47;8.52;;;5.05;;
21901;SDS011;11115;46.038;14.612;2024-03-23T14:52:14;11.38;;;4.03;;
21901;SDS011;11115;46.038;14.612;2024-03-23T14:54:51;6.10;;;3.45;;
21901;SDS011;11115;46.038;14.612;2024-03-23T14:57:22;4.47;;;3.00;;
21901;SDS011;11115;46.038;14.612;2024-03-23T14:59:50;3.28;;;2.83;;
21901;SDS011;11115;46.038;14.612;2024-03-23T15:02:18;4.47;;;3.72;;
21901;SDS011;11115;46.038;14.612;2024-03-23T15:04:46;4.53;;;3.10;;
21901;SDS011;11115;46.038;14.612;2024-03-23T15:07:15;5.18;;;2.80;;
21901;SDS011;11115;46.038;14.612;2024-03-23T15:09:46;8.43;;;4.10;;
21901;SDS011;11115;46.038;14.612;2024-03-23T15:12:12;5.32;;;2.92;;
21901;SDS011;11115;46.038;14.612;2024-03-23T15:14:44;4.45;;;3.13;;
21901;SDS011;11115;46.038;14.612;2024-03-23T15:17:19;4.50;;;3.33;;
21901;SDS011;11115;46.038;14.612;2024-03-23T15:19:46;3.92;;;3.53;;
21901;SDS011;11115;46.038;14.612;2024-03-23T15:22:12;4.65;;;3.28;;
21901;SDS011;11115;46.038;14.612;2024-03-23T15:24:42;6.53;;;3.58;;
21901;SDS011;11115;46.038;14.612;2024-03-23T15:27:10;4.50;;;3.03;;
21901;SDS011;11115;46.038;14.612;2024-03-23T15:29:48;8.48;;;3.28;;
21901;SDS011;11115;46.038;14.612;2024-03-23T15:32:16;6.78;;;4.15;;
21901;SDS011;11115;46.038;14.612;2024-03-23T15:34:52;4.25;;;3.13;;
21901;SDS011;11115;46.038;14.612;2024-03-23T15:37:24;5.05;;;3.53;;
21901;SDS011;11115;46.038;14.612;2024-03-23T15:39:52;6.55;;;3.00;;
21901;SDS011;11115;46.038;14.612;2024-03-23T15:42:24;12.82;;;4.07;;
21901;SDS011;11115;46.038;14.612;2024-03-23T15:44:56;9.73;;;3.83;;
21901;SDS011;11115;46.038;14.612;2024-03-23T15:47:23;5.93;;;3.67;;
21901;SDS011;11115;46.038;14.612;2024-03-23T15:52:23;3.22;;;2.88;;
21901;SDS011;11115;46.038;14.612;2024-03-23T15:54:53;8.23;;;3.28;;
21901;SDS011;11115;46.038;14.612;2024-03-23T15:57:23;5.97;;;3.47;;
21901;SDS011;11115;46.038;14.612;2024-03-23T15:59:59;5.15;;;3.22;;
21901;SDS011;11115;46.038;14.612;2024-03-23T16:02:24;5.63;;;3.38;;
21901;SDS011;11115;46.038;14.612;2024-03-23T16:05:01;7.43;;;3.55;;
21901;SDS011;11115;46.038;14.612;2024-03-23T16:07:33;6.07;;;4.18;;
21901;SDS011;11115;46.038;14.612;2024-03-23T16:10:24;6.63;;;3.60;;
21901;SDS011;11115;46.038;14.612;2024-03-23T16:12:59;7.63;;;4.85;;
21901;SDS011;11115;46.038;14.612;2024-03-23T16:15:29;5.28;;;3.17;;
21901;SDS011;11115;46.038;14.612;2024-03-23T16:17:59;6.07;;;3.17;;
21901;SDS011;11115;46.038;14.612;2024-03-23T16:20:28;4.35;;;3.40;;
21901;SDS011;11115;46.038;14.612;2024-03-23T16:23:04;5.97;;;2.88;;
21901;SDS011;11115;46.038;14.612;2024-03-23T16:25:34;6.22;;;2.90;;